sensor_id;sensor_type;location;lat;lon;timestamp;temperature;humidity
3542;DHT22;1785;47.388;8.538;2023-07-31T00:00:08;21.80;99.90
3542;DHT22;1785;47.388;8.538;2023-07-31T00:02:34;21.90;99.90
3542;DHT22;1785;47.388;8.538;2023-07-31T00:05:01;22.00;99.90
3542;DHT22;1785;47.388;8.538;2023-07-31T00:07:27;21.50;99.90
3542;DHT22;1785;47.388;8.538;2023-07-31T00:09:53;21.00;99.90
3542;DHT22;1785;47.388;8.538;2023-07-31T00:12:19;20.90;99.90
3542;DHT22;1785;47.388;8.538;2023-07-31T00:14:46;20.70;99.90
3542;DHT22;1785;47.388;8.538;2023-07-31T00:17:12;20.70;99.90
3542;DHT22;1785;47.388;8.538;2023-07-31T00:19:38;21.00;99.90
3542;DHT22;1785;47.388;8.538;2023-07-31T00:22:04;21.20;99.90
3542;DHT22;1785;47.388;8.538;2023-07-31T00:24:31;20.90;99.90
3542;DHT22;1785;47.388;8.538;2023-07-31T00:26:57;20.90;99.90
3542;DHT22;1785;47.388;8.538;2023-07-31T00:29:23;21.00;99.90
3542;DHT22;1785;47.388;8.538;2023-07-31T00:31:49;21.10;99.90
3542;DHT22;1785;47.388;8.538;2023-07-31T00:34:15;20.70;99.90
3542;DHT22;1785;47.388;8.538;2023-07-31T00:36:41;20.70;99.90
3542;DHT22;1785;47.388;8.538;2023-07-31T00:39:07;21.00;99.90
3542;DHT22;1785;47.388;8.538;2023-07-31T00:41:34;21.20;99.90
3542;DHT22;1785;47.388;8.538;2023-07-31T00:44:00;20.80;99.90
3542;DHT22;1785;47.388;8.538;2023-07-31T00:46:26;20.90;99.90
3542;DHT22;1785;47.388;8.538;2023-07-31T00:48:52;21.00;99.90
3542;DHT22;1785;47.388;8.538;2023-07-31T00:51:18;20.60;99.90
3542;DHT22;1785;47.388;8.538;2023-07-31T00:53:45;20.70;99.90
3542;DHT22;1785;47.388;8.538;2023-07-31T00:56:12;20.90;99.90
3542;DHT22;1785;47.388;8.538;2023-07-31T00:58:39;20.90;99.90
3542;DHT22;1785;47.388;8.538;2023-07-31T01:01:05;20.70;99.90
3542;DHT22;1785;47.388;8.538;2023-07-31T01:03:31;20.70;99.90
3542;DHT22;1785;47.388;8.538;2023-07-31T01:06:08;20.90;99.90
3542;DHT22;1785;47.388;8.538;2023-07-31T01:08:42;20.60;99.90
3542;DHT22;1785;47.388;8.538;2023-07-31T01:11:15;20.20;99.90
3542;DHT22;1785;47.388;8.538;2023-07-31T01:13:44;20.50;99.90
3542;DHT22;1785;47.388;8.538;2023-07-31T01:16:11;20.80;99.90
3542;DHT22;1785;47.388;8.538;2023-07-31T01:18:37;20.90;99.90
3542;DHT22;1785;47.388;8.538;2023-07-31T01:21:21;21.00;99.90
3542;DHT22;1785;47.388;8.538;2023-07-31T01:24:22;20.90;99.90
3542;DHT22;1785;47.388;8.538;2023-07-31T01:26:53;20.90;99.90
3542;DHT22;1785;47.388;8.538;2023-07-31T01:29:26;20.40;99.90
3542;DHT22;1785;47.388;8.538;2023-07-31T01:31:55;20.60;99.90
3542;DHT22;1785;47.388;8.538;2023-07-31T01:34:22;20.80;99.90
3542;DHT22;1785;47.388;8.538;2023-07-31T01:36:49;21.00;99.90
3542;DHT22;1785;47.388;8.538;2023-07-31T01:39:15;21.00;99.90
3542;DHT22;1785;47.388;8.538;2023-07-31T01:41:41;21.10;99.90
3542;DHT22;1785;47.388;8.538;2023-07-31T01:44:08;21.30;99.90
3542;DHT22;1785;47.388;8.538;2023-07-31T01:46:34;21.40;99.90
3542;DHT22;1785;47.388;8.538;2023-07-31T01:49:00;21.30;99.90
3542;DHT22;1785;47.388;8.538;2023-07-31T01:51:26;21.20;99.90
3542;DHT22;1785;47.388;8.538;2023-07-31T01:53:52;21.20;99.90
3542;DHT22;1785;47.388;8.538;2023-07-31T01:56:18;21.30;99.90
3542;DHT22;1785;47.388;8.538;2023-07-31T01:58:44;21.30;99.90
3542;DHT22;1785;47.388;8.538;2023-07-31T02:01:10;21.40;99.90
3542;DHT22;1785;47.388;8.538;2023-07-31T02:03:36;21.50;99.90
3542;DHT22;1785;47.388;8.538;2023-07-31T02:06:02;21.40;99.90
3542;DHT22;1785;47.388;8.538;2023-07-31T02:08:28;21.20;99.90
3542;DHT22;1785;47.388;8.538;2023-07-31T02:10:54;21.10;99.90
3542;DHT22;1785;47.388;8.538;2023-07-31T02:13:20;21.10;99.90
3542;DHT22;1785;47.388;8.538;2023-07-31T02:15:47;21.20;99.90
3542;DHT22;1785;47.388;8.538;2023-07-31T02:18:14;21.20;99.90
3542;DHT22;1785;47.388;8.538;2023-07-31T02:20:40;21.10;99.90
3542;DHT22;1785;47.388;8.538;2023-07-31T02:23:06;21.10;99.90
3542;DHT22;1785;47.388;8.538;2023-07-31T02:25:32;21.10;99.90
3542;DHT22;1785;47.388;8.538;2023-07-31T02:27:58;21.10;99.90
3542;DHT22;1785;47.388;8.538;2023-07-31T02:30:24;21.20;99.90
3542;DHT22;1785;47.388;8.538;2023-07-31T02:32:50;21.10;99.90
3542;DHT22;1785;47.388;8.538;2023-07-31T02:35:17;21.20;99.90
3542;DHT22;1785;47.388;8.538;2023-07-31T02:37:44;21.20;99.90
3542;DHT22;1785;47.388;8.538;2023-07-31T02:40:10;21.10;99.90
3542;DHT22;1785;47.388;8.538;2023-07-31T02:42:36;21.10;99.90
3542;DHT22;1785;47.388;8.538;2023-07-31T02:45:03;21.10;99.90
3542;DHT22;1785;47.388;8.538;2023-07-31T02:47:29;21.10;99.90
3542;DHT22;1785;47.388;8.538;2023-07-31T02:49:55;21.10;99.90
3542;DHT22;1785;47.388;8.538;2023-07-31T02:52:22;21.10;99.90
3542;DHT22;1785;47.388;8.538;2023-07-31T02:54:48;21.20;99.90
3542;DHT22;1785;47.388;8.538;2023-07-31T02:57:14;21.10;99.90
3542;DHT22;1785;47.388;8.538;2023-07-31T02:59:41;21.20;99.90
3542;DHT22;1785;47.388;8.538;2023-07-31T03:02:07;21.20;99.90
3542;DHT22;1785;47.388;8.538;2023-07-31T03:04:33;21.20;99.90
3542;DHT22;1785;47.388;8.538;2023-07-31T03:06:59;21.10;99.90
3542;DHT22;1785;47.388;8.538;2023-07-31T03:09:26;21.10;99.90
3542;DHT22;1785;47.388;8.538;2023-07-31T03:11:52;21.00;99.90
3542;DHT22;1785;47.388;8.538;2023-07-31T03:14:18;21.00;99.90
3542;DHT22;1785;47.388;8.538;2023-07-31T03:16:44;20.80;99.90
3542;DHT22;1785;47.388;8.538;2023-07-31T03:19:10;20.40;99.90
3542;DHT22;1785;47.388;8.538;2023-07-31T03:21:36;20.30;99.90
3542;DHT22;1785;47.388;8.538;2023-07-31T03:24:02;20.00;99.90
3542;DHT22;1785;47.388;8.538;2023-07-31T03:26:31;20.20;99.90
3542;DHT22;1785;47.388;8.538;2023-07-31T03:28:57;20.30;99.90
3542;DHT22;1785;47.388;8.538;2023-07-31T03:31:23;20.20;99.90
3542;DHT22;1785;47.388;8.538;2023-07-31T03:33:49;20.30;99.90
3542;DHT22;1785;47.388;8.538;2023-07-31T03:36:15;20.30;99.90
3542;DHT22;1785;47.388;8.538;2023-07-31T03:38:41;20.30;99.90
3542;DHT22;1785;47.388;8.538;2023-07-31T03:41:07;20.10;99.90
3542;DHT22;1785;47.388;8.538;2023-07-31T03:43:34;20.10;99.90
3542;DHT22;1785;47.388;8.538;2023-07-31T03:46:00;20.20;99.90
3542;DHT22;1785;47.388;8.538;2023-07-31T03:48:26;19.90;99.90
3542;DHT22;1785;47.388;8.538;2023-07-31T03:50:52;19.80;99.90
3542;DHT22;1785;47.388;8.538;2023-07-31T03:53:18;19.50;99.90
3542;DHT22;1785;47.388;8.538;2023-07-31T03:55:44;19.30;99.90
3542;DHT22;1785;47.388;8.538;2023-07-31T03:58:10;19.20;99.90
3542;DHT22;1785;47.388;8.538;2023-07-31T04:00:37;19.10;99.90
3542;DHT22;1785;47.388;8.538;2023-07-31T04:03:03;19.40;99.90
3542;DHT22;1785;47.388;8.538;2023-07-31T04:05:31;19.40;99.90
3542;DHT22;1785;47.388;8.538;2023-07-31T04:07:57;19.70;99.90
3542;DHT22;1785;47.388;8.538;2023-07-31T04:10:23;19.60;99.90
3542;DHT22;1785;47.388;8.538;2023-07-31T04:12:49;19.70;99.90
3542;DHT22;1785;47.388;8.538;2023-07-31T04:15:16;19.60;99.90
3542;DHT22;1785;47.388;8.538;2023-07-31T04:17:42;19.70;99.90
3542;DHT22;1785;47.388;8.538;2023-07-31T04:20:09;19.70;99.90
3542;DHT22;1785;47.388;8.538;2023-07-31T04:22:35;19.80;99.90
3542;DHT22;1785;47.388;8.538;2023-07-31T04:25:05;19.90;99.90
3542;DHT22;1785;47.388;8.538;2023-07-31T04:27:31;19.70;99.90
3542;DHT22;1785;47.388;8.538;2023-07-31T04:29:57;19.70;99.90
3542;DHT22;1785;47.388;8.538;2023-07-31T04:32:23;19.50;99.90
3542;DHT22;1785;47.388;8.538;2023-07-31T04:34:50;19.70;99.90
3542;DHT22;1785;47.388;8.538;2023-07-31T04:37:16;19.90;99.90
3542;DHT22;1785;47.388;8.538;2023-07-31T04:39:42;19.70;99.90
3542;DHT22;1785;47.388;8.538;2023-07-31T04:42:08;19.40;99.90
3542;DHT22;1785;47.388;8.538;2023-07-31T04:44:34;19.20;99.90
3542;DHT22;1785;47.388;8.538;2023-07-31T04:47:00;19.40;99.90
3542;DHT22;1785;47.388;8.538;2023-07-31T04:49:27;19.20;99.90
3542;DHT22;1785;47.388;8.538;2023-07-31T04:51:54;19.10;99.90
3542;DHT22;1785;47.388;8.538;2023-07-31T04:54:20;19.50;99.90
3542;DHT22;1785;47.388;8.538;2023-07-31T04:56:46;19.60;99.90
3542;DHT22;1785;47.388;8.538;2023-07-31T04:59:12;19.20;99.90
3542;DHT22;1785;47.388;8.538;2023-07-31T05:01:39;19.20;99.90
3542;DHT22;1785;47.388;8.538;2023-07-31T05:04:04;18.90;99.90
3542;DHT22;1785;47.388;8.538;2023-07-31T05:06:30;19.10;99.90
3542;DHT22;1785;47.388;8.538;2023-07-31T05:08:57;19.40;99.90
3542;DHT22;1785;47.388;8.538;2023-07-31T05:11:23;19.50;99.90
3542;DHT22;1785;47.388;8.538;2023-07-31T05:13:49;19.60;99.90
3542;DHT22;1785;47.388;8.538;2023-07-31T05:16:15;19.70;99.90
3542;DHT22;1785;47.388;8.538;2023-07-31T05:18:41;19.70;99.90
3542;DHT22;1785;47.388;8.538;2023-07-31T05:21:07;19.30;99.90
3542;DHT22;1785;47.388;8.538;2023-07-31T05:23:33;19.50;99.90
3542;DHT22;1785;47.388;8.538;2023-07-31T05:26:03;19.30;99.90
3542;DHT22;1785;47.388;8.538;2023-07-31T05:28:30;19.40;99.90
3542;DHT22;1785;47.388;8.538;2023-07-31T05:30:59;19.70;99.90
3542;DHT22;1785;47.388;8.538;2023-07-31T05:33:25;19.70;99.90
3542;DHT22;1785;47.388;8.538;2023-07-31T05:35:51;19.40;99.90
3542;DHT22;1785;47.388;8.538;2023-07-31T05:38:17;19.50;99.90
3542;DHT22;1785;47.388;8.538;2023-07-31T05:40:43;19.50;99.90
3542;DHT22;1785;47.388;8.538;2023-07-31T05:43:10;19.70;99.90
3542;DHT22;1785;47.388;8.538;2023-07-31T05:45:36;19.70;99.90
3542;DHT22;1785;47.388;8.538;2023-07-31T05:48:02;19.40;99.90
3542;DHT22;1785;47.388;8.538;2023-07-31T05:50:29;19.40;99.90
3542;DHT22;1785;47.388;8.538;2023-07-31T05:52:55;19.20;99.90
3542;DHT22;1785;47.388;8.538;2023-07-31T05:55:21;19.20;99.90
3542;DHT22;1785;47.388;8.538;2023-07-31T05:57:47;19.40;99.90
3542;DHT22;1785;47.388;8.538;2023-07-31T06:00:14;19.50;99.90
3542;DHT22;1785;47.388;8.538;2023-07-31T06:02:40;19.50;99.90
3542;DHT22;1785;47.388;8.538;2023-07-31T06:05:07;19.50;99.90
3542;DHT22;1785;47.388;8.538;2023-07-31T06:07:33;19.40;99.90
3542;DHT22;1785;47.388;8.538;2023-07-31T06:09:59;19.50;99.90
3542;DHT22;1785;47.388;8.538;2023-07-31T06:12:29;19.70;99.90
3542;DHT22;1785;47.388;8.538;2023-07-31T06:14:55;19.90;99.90
3542;DHT22;1785;47.388;8.538;2023-07-31T06:17:21;19.70;99.90
3542;DHT22;1785;47.388;8.538;2023-07-31T06:19:47;19.60;99.90
3542;DHT22;1785;47.388;8.538;2023-07-31T06:22:13;19.40;99.90
3542;DHT22;1785;47.388;8.538;2023-07-31T06:24:39;19.40;99.90
3542;DHT22;1785;47.388;8.538;2023-07-31T06:27:06;19.80;99.90
3542;DHT22;1785;47.388;8.538;2023-07-31T06:29:32;19.90;99.90
3542;DHT22;1785;47.388;8.538;2023-07-31T06:31:58;20.10;99.90
3542;DHT22;1785;47.388;8.538;2023-07-31T06:34:25;20.30;99.90
3542;DHT22;1785;47.388;8.538;2023-07-31T06:36:51;20.30;99.90
3542;DHT22;1785;47.388;8.538;2023-07-31T06:39:17;20.30;99.90
3542;DHT22;1785;47.388;8.538;2023-07-31T06:41:43;20.50;99.90
3542;DHT22;1785;47.388;8.538;2023-07-31T06:44:10;20.50;99.90
3542;DHT22;1785;47.388;8.538;2023-07-31T06:46:36;20.40;99.90
3542;DHT22;1785;47.388;8.538;2023-07-31T06:49:02;20.20;99.90
3542;DHT22;1785;47.388;8.538;2023-07-31T06:51:29;20.10;99.90
3542;DHT22;1785;47.388;8.538;2023-07-31T06:53:56;20.10;99.90
3542;DHT22;1785;47.388;8.538;2023-07-31T06:56:22;19.90;99.90
3542;DHT22;1785;47.388;8.538;2023-07-31T06:58:48;20.00;99.90
3542;DHT22;1785;47.388;8.538;2023-07-31T07:01:14;20.20;99.90
3542;DHT22;1785;47.388;8.538;2023-07-31T07:03:41;20.00;99.90
3542;DHT22;1785;47.388;8.538;2023-07-31T07:06:07;19.70;99.90
3542;DHT22;1785;47.388;8.538;2023-07-31T07:08:33;19.60;99.90
3542;DHT22;1785;47.388;8.538;2023-07-31T07:10:59;19.60;99.90
3542;DHT22;1785;47.388;8.538;2023-07-31T07:13:25;19.70;99.90
3542;DHT22;1785;47.388;8.538;2023-07-31T07:15:51;19.90;99.90
3542;DHT22;1785;47.388;8.538;2023-07-31T07:18:17;19.90;99.90
3542;DHT22;1785;47.388;8.538;2023-07-31T07:20:46;20.10;99.90
3542;DHT22;1785;47.388;8.538;2023-07-31T07:23:12;20.10;99.90
3542;DHT22;1785;47.388;8.538;2023-07-31T07:25:39;20.30;99.90
3542;DHT22;1785;47.388;8.538;2023-07-31T07:28:05;20.10;99.90
3542;DHT22;1785;47.388;8.538;2023-07-31T07:30:31;19.90;99.90
3542;DHT22;1785;47.388;8.538;2023-07-31T07:32:57;19.80;99.90
3542;DHT22;1785;47.388;8.538;2023-07-31T07:35:23;19.70;99.90
3542;DHT22;1785;47.388;8.538;2023-07-31T07:37:49;19.70;99.90
3542;DHT22;1785;47.388;8.538;2023-07-31T07:40:15;19.70;99.90
3542;DHT22;1785;47.388;8.538;2023-07-31T07:42:42;19.80;99.90
3542;DHT22;1785;47.388;8.538;2023-07-31T07:45:09;19.80;99.90
3542;DHT22;1785;47.388;8.538;2023-07-31T07:47:35;19.80;99.90
3542;DHT22;1785;47.388;8.538;2023-07-31T07:50:01;20.10;99.90
3542;DHT22;1785;47.388;8.538;2023-07-31T07:52:28;20.50;99.90
3542;DHT22;1785;47.388;8.538;2023-07-31T07:54:53;20.80;99.90
3542;DHT22;1785;47.388;8.538;2023-07-31T07:57:19;20.50;99.90
3542;DHT22;1785;47.388;8.538;2023-07-31T07:59:46;20.30;99.90
3542;DHT22;1785;47.388;8.538;2023-07-31T08:02:12;20.50;99.90
3542;DHT22;1785;47.388;8.538;2023-07-31T08:04:38;20.60;99.90
3542;DHT22;1785;47.388;8.538;2023-07-31T08:07:04;20.40;99.90
3542;DHT22;1785;47.388;8.538;2023-07-31T08:09:31;20.40;99.90
3542;DHT22;1785;47.388;8.538;2023-07-31T08:11:57;20.30;99.90
3542;DHT22;1785;47.388;8.538;2023-07-31T08:14:27;20.20;99.90
3542;DHT22;1785;47.388;8.538;2023-07-31T08:16:55;20.40;99.90
3542;DHT22;1785;47.388;8.538;2023-07-31T08:19:21;20.50;99.90
3542;DHT22;1785;47.388;8.538;2023-07-31T08:21:47;20.50;99.90
3542;DHT22;1785;47.388;8.538;2023-07-31T08:24:13;20.60;99.90
3542;DHT22;1785;47.388;8.538;2023-07-31T08:26:39;20.60;99.90
3542;DHT22;1785;47.388;8.538;2023-07-31T08:29:05;20.60;99.90
3542;DHT22;1785;47.388;8.538;2023-07-31T08:31:31;20.60;99.90
3542;DHT22;1785;47.388;8.538;2023-07-31T08:33:59;20.60;99.90
3542;DHT22;1785;47.388;8.538;2023-07-31T08:36:25;20.60;99.90
3542;DHT22;1785;47.388;8.538;2023-07-31T08:38:51;20.50;99.90
3542;DHT22;1785;47.388;8.538;2023-07-31T08:41:17;20.50;99.90
3542;DHT22;1785;47.388;8.538;2023-07-31T08:43:44;20.40;99.90
3542;DHT22;1785;47.388;8.538;2023-07-31T08:46:11;20.60;99.90
3542;DHT22;1785;47.388;8.538;2023-07-31T08:48:37;20.80;99.90
3542;DHT22;1785;47.388;8.538;2023-07-31T08:51:05;20.90;99.90
3542;DHT22;1785;47.388;8.538;2023-07-31T08:53:32;21.20;99.90
3542;DHT22;1785;47.388;8.538;2023-07-31T08:55:58;21.10;99.90
3542;DHT22;1785;47.388;8.538;2023-07-31T08:58:25;21.10;99.90
3542;DHT22;1785;47.388;8.538;2023-07-31T09:00:54;20.90;99.90
3542;DHT22;1785;47.388;8.538;2023-07-31T09:03:23;21.00;99.90
3542;DHT22;1785;47.388;8.538;2023-07-31T09:05:50;20.90;99.90
3542;DHT22;1785;47.388;8.538;2023-07-31T09:08:19;21.20;99.90
3542;DHT22;1785;47.388;8.538;2023-07-31T09:10:46;21.40;99.90
3542;DHT22;1785;47.388;8.538;2023-07-31T09:13:12;21.00;99.90
3542;DHT22;1785;47.388;8.538;2023-07-31T09:15:39;20.90;99.90
3542;DHT22;1785;47.388;8.538;2023-07-31T09:18:06;21.00;99.90
3542;DHT22;1785;47.388;8.538;2023-07-31T09:20:33;21.30;99.90
3542;DHT22;1785;47.388;8.538;2023-07-31T09:23:07;21.40;99.90
3542;DHT22;1785;47.388;8.538;2023-07-31T09:25:34;21.30;99.90
3542;DHT22;1785;47.388;8.538;2023-07-31T09:28:02;21.40;99.90
3542;DHT22;1785;47.388;8.538;2023-07-31T09:30:28;21.40;99.90
3542;DHT22;1785;47.388;8.538;2023-07-31T09:33:01;21.40;99.90
3542;DHT22;1785;47.388;8.538;2023-07-31T09:35:28;21.10;99.90
3542;DHT22;1785;47.388;8.538;2023-07-31T09:37:57;21.40;99.90
3542;DHT22;1785;47.388;8.538;2023-07-31T09:40:30;21.40;99.90
3542;DHT22;1785;47.388;8.538;2023-07-31T09:42:59;21.30;99.90
3542;DHT22;1785;47.388;8.538;2023-07-31T09:45:26;21.40;99.90
3542;DHT22;1785;47.388;8.538;2023-07-31T09:47:52;21.60;99.90
3542;DHT22;1785;47.388;8.538;2023-07-31T09:50:20;21.40;99.90
3542;DHT22;1785;47.388;8.538;2023-07-31T09:52:46;21.30;99.90
3542;DHT22;1785;47.388;8.538;2023-07-31T09:55:13;21.20;99.90
3542;DHT22;1785;47.388;8.538;2023-07-31T09:57:40;21.10;99.90
3542;DHT22;1785;47.388;8.538;2023-07-31T10:00:08;21.30;99.90
3542;DHT22;1785;47.388;8.538;2023-07-31T10:02:35;21.50;99.90
3542;DHT22;1785;47.388;8.538;2023-07-31T10:05:03;21.50;99.90
3542;DHT22;1785;47.388;8.538;2023-07-31T10:07:31;21.60;99.90
3542;DHT22;1785;47.388;8.538;2023-07-31T10:09:58;22.00;99.90
3542;DHT22;1785;47.388;8.538;2023-07-31T10:12:26;22.20;99.90
3542;DHT22;1785;47.388;8.538;2023-07-31T10:14:54;22.40;99.90
3542;DHT22;1785;47.388;8.538;2023-07-31T10:17:21;22.40;99.90
3542;DHT22;1785;47.388;8.538;2023-07-31T10:19:48;21.90;99.90
3542;DHT22;1785;47.388;8.538;2023-07-31T10:22:15;21.70;99.90
3542;DHT22;1785;47.388;8.538;2023-07-31T10:24:42;21.60;99.90
3542;DHT22;1785;47.388;8.538;2023-07-31T10:27:09;21.60;99.90
3542;DHT22;1785;47.388;8.538;2023-07-31T10:29:36;21.80;99.90
3542;DHT22;1785;47.388;8.538;2023-07-31T10:32:03;21.80;99.90
3542;DHT22;1785;47.388;8.538;2023-07-31T10:34:33;21.90;99.90
3542;DHT22;1785;47.388;8.538;2023-07-31T10:37:21;21.90;99.90
3542;DHT22;1785;47.388;8.538;2023-07-31T10:39:56;21.80;99.90
3542;DHT22;1785;47.388;8.538;2023-07-31T10:42:28;22.00;99.90
3542;DHT22;1785;47.388;8.538;2023-07-31T10:44:57;22.10;99.90
3542;DHT22;1785;47.388;8.538;2023-07-31T10:47:23;22.30;99.90
3542;DHT22;1785;47.388;8.538;2023-07-31T10:49:50;22.40;99.90
3542;DHT22;1785;47.388;8.538;2023-07-31T10:52:20;22.30;99.90
3542;DHT22;1785;47.388;8.538;2023-07-31T10:54:48;22.50;99.90
3542;DHT22;1785;47.388;8.538;2023-07-31T10:57:20;22.40;99.90
3542;DHT22;1785;47.388;8.538;2023-07-31T10:59:46;22.50;99.90
3542;DHT22;1785;47.388;8.538;2023-07-31T11:02:24;22.40;99.90
3542;DHT22;1785;47.388;8.538;2023-07-31T11:05:06;22.60;99.90
3542;DHT22;1785;47.388;8.538;2023-07-31T11:07:46;22.60;99.90
3542;DHT22;1785;47.388;8.538;2023-07-31T11:10:16;22.80;99.90
3542;DHT22;1785;47.388;8.538;2023-07-31T11:12:42;22.80;99.90
3542;DHT22;1785;47.388;8.538;2023-07-31T11:15:09;23.00;99.90
3542;DHT22;1785;47.388;8.538;2023-07-31T11:17:38;22.90;99.90
3542;DHT22;1785;47.388;8.538;2023-07-31T11:20:06;22.80;99.90
3542;DHT22;1785;47.388;8.538;2023-07-31T11:24:59;22.70;99.90
3542;DHT22;1785;47.388;8.538;2023-07-31T11:27:27;22.70;99.90
3542;DHT22;1785;47.388;8.538;2023-07-31T11:29:53;22.70;99.90
3542;DHT22;1785;47.388;8.538;2023-07-31T11:32:25;22.60;99.90
3542;DHT22;1785;47.388;8.538;2023-07-31T11:34:52;23.00;99.90
3542;DHT22;1785;47.388;8.538;2023-07-31T11:37:19;22.90;99.90
3542;DHT22;1785;47.388;8.538;2023-07-31T11:39:58;23.10;99.90
3542;DHT22;1785;47.388;8.538;2023-07-31T11:42:24;23.30;99.90
3542;DHT22;1785;47.388;8.538;2023-07-31T11:44:50;23.60;99.90
3542;DHT22;1785;47.388;8.538;2023-07-31T11:47:16;23.50;99.90
3542;DHT22;1785;47.388;8.538;2023-07-31T11:49:43;23.30;99.90
3542;DHT22;1785;47.388;8.538;2023-07-31T11:52:09;23.20;99.90
3542;DHT22;1785;47.388;8.538;2023-07-31T11:54:37;23.50;99.90
3542;DHT22;1785;47.388;8.538;2023-07-31T11:57:05;23.70;99.90
3542;DHT22;1785;47.388;8.538;2023-07-31T11:59:31;23.80;99.90
3542;DHT22;1785;47.388;8.538;2023-07-31T12:01:57;23.90;99.90
3542;DHT22;1785;47.388;8.538;2023-07-31T12:04:24;23.50;99.90
3542;DHT22;1785;47.388;8.538;2023-07-31T12:06:52;23.60;99.90
3542;DHT22;1785;47.388;8.538;2023-07-31T12:09:18;23.90;99.90
3542;DHT22;1785;47.388;8.538;2023-07-31T12:11:46;23.80;99.90
3542;DHT22;1785;47.388;8.538;2023-07-31T12:14:24;23.80;99.90
3542;DHT22;1785;47.388;8.538;2023-07-31T12:16:53;24.20;99.90
3542;DHT22;1785;47.388;8.538;2023-07-31T12:19:19;23.90;99.90
3542;DHT22;1785;47.388;8.538;2023-07-31T12:21:45;24.20;99.90
3542;DHT22;1785;47.388;8.538;2023-07-31T12:24:12;24.50;99.90
3542;DHT22;1785;47.388;8.538;2023-07-31T12:26:38;24.50;99.90
3542;DHT22;1785;47.388;8.538;2023-07-31T12:29:07;24.40;99.90
3542;DHT22;1785;47.388;8.538;2023-07-31T12:31:34;24.60;99.90
3542;DHT22;1785;47.388;8.538;2023-07-31T12:34:00;24.30;99.90
3542;DHT22;1785;47.388;8.538;2023-07-31T12:36:26;24.30;99.90
3542;DHT22;1785;47.388;8.538;2023-07-31T12:38:54;24.30;99.90
3542;DHT22;1785;47.388;8.538;2023-07-31T12:41:21;24.60;99.90
3542;DHT22;1785;47.388;8.538;2023-07-31T12:43:47;24.80;99.90
3542;DHT22;1785;47.388;8.538;2023-07-31T12:46:14;25.00;99.90
3542;DHT22;1785;47.388;8.538;2023-07-31T12:48:40;24.90;99.60
3542;DHT22;1785;47.388;8.538;2023-07-31T12:51:06;24.70;99.80
3542;DHT22;1785;47.388;8.538;2023-07-31T12:53:33;25.00;99.80
3542;DHT22;1785;47.388;8.538;2023-07-31T12:55:59;25.00;99.80
3542;DHT22;1785;47.388;8.538;2023-07-31T12:58:25;25.00;99.80
3542;DHT22;1785;47.388;8.538;2023-07-31T13:00:51;25.00;99.80
3542;DHT22;1785;47.388;8.538;2023-07-31T13:03:17;25.00;99.20
3542;DHT22;1785;47.388;8.538;2023-07-31T13:05:43;25.20;99.20
3542;DHT22;1785;47.388;8.538;2023-07-31T13:08:10;25.10;98.80
3542;DHT22;1785;47.388;8.538;2023-07-31T13:10:36;25.30;99.10
3542;DHT22;1785;47.388;8.538;2023-07-31T13:13:02;25.40;98.80
3542;DHT22;1785;47.388;8.538;2023-07-31T13:15:28;25.80;99.10
3542;DHT22;1785;47.388;8.538;2023-07-31T13:17:54;26.10;98.30
3542;DHT22;1785;47.388;8.538;2023-07-31T13:20:21;25.80;98.20
3542;DHT22;1785;47.388;8.538;2023-07-31T13:22:46;25.90;98.40
3542;DHT22;1785;47.388;8.538;2023-07-31T13:25:13;26.20;98.40
3542;DHT22;1785;47.388;8.538;2023-07-31T13:27:39;26.30;97.90
3542;DHT22;1785;47.388;8.538;2023-07-31T13:30:06;26.30;97.30
3542;DHT22;1785;47.388;8.538;2023-07-31T13:32:32;26.40;97.60
3542;DHT22;1785;47.388;8.538;2023-07-31T13:34:58;26.50;97.40
3542;DHT22;1785;47.388;8.538;2023-07-31T13:37:25;26.50;97.30
3542;DHT22;1785;47.388;8.538;2023-07-31T13:39:51;26.60;97.50
3542;DHT22;1785;47.388;8.538;2023-07-31T13:42:17;26.50;96.70
3542;DHT22;1785;47.388;8.538;2023-07-31T13:44:43;26.30;97.10
3542;DHT22;1785;47.388;8.538;2023-07-31T13:47:09;26.10;97.00
3542;DHT22;1785;47.388;8.538;2023-07-31T13:49:36;26.10;96.70
3542;DHT22;1785;47.388;8.538;2023-07-31T13:52:03;26.00;96.90
3542;DHT22;1785;47.388;8.538;2023-07-31T13:54:30;26.00;97.10
3542;DHT22;1785;47.388;8.538;2023-07-31T13:56:56;26.00;97.20
3542;DHT22;1785;47.388;8.538;2023-07-31T13:59:22;26.20;97.10
3542;DHT22;1785;47.388;8.538;2023-07-31T14:01:48;26.40;96.80
3542;DHT22;1785;47.388;8.538;2023-07-31T14:04:14;26.30;96.70
3542;DHT22;1785;47.388;8.538;2023-07-31T14:06:40;26.10;97.00
3542;DHT22;1785;47.388;8.538;2023-07-31T14:09:06;25.80;97.50
3542;DHT22;1785;47.388;8.538;2023-07-31T14:11:33;25.70;97.50
3542;DHT22;1785;47.388;8.538;2023-07-31T14:13:59;25.50;97.30
3542;DHT22;1785;47.388;8.538;2023-07-31T14:16:27;25.60;97.80
3542;DHT22;1785;47.388;8.538;2023-07-31T14:18:53;25.70;97.60
3542;DHT22;1785;47.388;8.538;2023-07-31T14:21:20;25.40;97.70
3542;DHT22;1785;47.388;8.538;2023-07-31T14:23:46;25.70;97.40
3542;DHT22;1785;47.388;8.538;2023-07-31T14:26:12;25.80;97.20
3542;DHT22;1785;47.388;8.538;2023-07-31T14:28:38;25.80;97.70
3542;DHT22;1785;47.388;8.538;2023-07-31T14:31:04;25.80;98.40
3542;DHT22;1785;47.388;8.538;2023-07-31T14:33:30;25.90;98.80
3542;DHT22;1785;47.388;8.538;2023-07-31T14:35:56;26.10;98.30
3542;DHT22;1785;47.388;8.538;2023-07-31T14:38:22;26.10;98.80
3542;DHT22;1785;47.388;8.538;2023-07-31T14:40:48;26.10;98.80
3542;DHT22;1785;47.388;8.538;2023-07-31T14:43:15;26.00;99.10
3542;DHT22;1785;47.388;8.538;2023-07-31T14:45:41;26.10;99.00
3542;DHT22;1785;47.388;8.538;2023-07-31T14:48:07;26.20;99.60
3542;DHT22;1785;47.388;8.538;2023-07-31T14:50:33;26.60;99.50
3542;DHT22;1785;47.388;8.538;2023-07-31T14:53:00;26.50;98.50
3542;DHT22;1785;47.388;8.538;2023-07-31T14:55:26;26.60;98.70
3542;DHT22;1785;47.388;8.538;2023-07-31T14:57:52;26.60;98.80
3542;DHT22;1785;47.388;8.538;2023-07-31T15:00:18;26.30;99.20
3542;DHT22;1785;47.388;8.538;2023-07-31T15:02:45;26.60;99.60
3542;DHT22;1785;47.388;8.538;2023-07-31T15:05:11;26.20;99.30
3542;DHT22;1785;47.388;8.538;2023-07-31T15:07:37;26.20;99.90
3542;DHT22;1785;47.388;8.538;2023-07-31T15:10:05;26.50;99.80
3542;DHT22;1785;47.388;8.538;2023-07-31T15:12:31;26.40;99.90
3542;DHT22;1785;47.388;8.538;2023-07-31T15:14:57;26.60;99.90
3542;DHT22;1785;47.388;8.538;2023-07-31T15:17:23;26.70;99.90
3542;DHT22;1785;47.388;8.538;2023-07-31T15:19:50;26.90;99.90
3542;DHT22;1785;47.388;8.538;2023-07-31T15:22:16;27.30;99.20
3542;DHT22;1785;47.388;8.538;2023-07-31T15:24:42;27.10;98.90
3542;DHT22;1785;47.388;8.538;2023-07-31T15:29:46;27.30;99.90
3542;DHT22;1785;47.388;8.538;2023-07-31T15:32:12;27.80;99.20
3542;DHT22;1785;47.388;8.538;2023-07-31T15:34:38;27.70;98.60
3542;DHT22;1785;47.388;8.538;2023-07-31T15:37:05;27.60;98.60
3542;DHT22;1785;47.388;8.538;2023-07-31T15:39:32;27.70;98.60
3542;DHT22;1785;47.388;8.538;2023-07-31T15:41:58;27.70;98.70
3542;DHT22;1785;47.388;8.538;2023-07-31T15:44:24;27.60;98.60
3542;DHT22;1785;47.388;8.538;2023-07-31T15:46:50;27.60;98.90
3542;DHT22;1785;47.388;8.538;2023-07-31T15:49:16;27.20;97.90
3542;DHT22;1785;47.388;8.538;2023-07-31T15:51:43;27.20;98.10
3542;DHT22;1785;47.388;8.538;2023-07-31T15:54:10;27.00;98.30
3542;DHT22;1785;47.388;8.538;2023-07-31T15:56:37;27.10;98.80
3542;DHT22;1785;47.388;8.538;2023-07-31T15:59:03;27.30;99.20
3542;DHT22;1785;47.388;8.538;2023-07-31T16:01:29;27.30;99.20
3542;DHT22;1785;47.388;8.538;2023-07-31T16:03:56;27.40;99.50